Terminal Aerodrome Forecast
Issued by NWS Albany, NY

Current Version | Previous Version | Text Only | Print | Product List | Glossary On
Versions: 1 2 3 4 5 6 7 8 9 10 11 12
000 FTUS41 KALY 272320 TAFALB TAF KALB 272320Z 2800/2824 19012KT P6SM SCT025 BKN050 FM280300 18005KT P6SM BKN025 BKN100 FM280800 19005KT 4SM BR BKN007 OVC011 FM281330 19008KT P6SM SCT035 FM281900 19011KT 3SM SHRA OVC030=

USA.gov is the U.S. government's official web portal to all federal, state and local government web resources and services.